createdAt,value
2023-01-15T00:02:18.828Z,4.80
2023-01-15T00:04:47.309Z,4.90
2023-01-15T00:07:15.687Z,4.70
2023-01-15T00:09:44.064Z,4.80
2023-01-15T00:12:12.344Z,4.60
2023-01-15T00:14:40.818Z,4.80
2023-01-15T00:17:09.208Z,4.70
2023-01-15T00:19:37.787Z,4.40
2023-01-15T00:22:06.169Z,4.40
2023-01-15T00:24:53.084Z,4.80
2023-01-15T00:27:40.043Z,5.50
2023-01-15T00:30:12.368Z,5.00
2023-01-15T00:32:42.281Z,5.00
2023-01-15T00:35:31.034Z,5.50
2023-01-15T00:38:00.539Z,5.00
2023-01-15T00:40:28.721Z,4.60
2023-01-15T00:42:57.009Z,5.20
2023-01-15T00:45:25.373Z,4.60
2023-01-15T00:47:53.878Z,4.90
2023-01-15T00:50:22.250Z,5.30
2023-01-15T00:52:50.610Z,5.10
2023-01-15T00:55:19.311Z,5.10
2023-01-15T00:57:47.578Z,5.10
2023-01-15T01:00:16.385Z,4.80
2023-01-15T01:02:44.661Z,5.60
2023-01-15T01:05:13.429Z,6.10
2023-01-15T01:07:41.808Z,5.00
2023-01-15T01:10:11.108Z,6.00
2023-01-15T01:12:39.386Z,5.20
2023-01-15T01:15:10.279Z,5.40
2023-01-15T01:20:08.050Z,5.20
2023-01-15T01:22:36.283Z,5.30
2023-01-15T01:25:05.081Z,5.30
2023-01-15T01:27:33.348Z,4.80
2023-01-15T01:30:01.846Z,4.90
2023-01-15T01:32:30.321Z,5.10
2023-01-15T01:34:58.689Z,5.70
2023-01-15T01:37:26.968Z,5.70
2023-01-15T01:39:55.764Z,4.70
2023-01-15T01:42:24.160Z,4.60
2023-01-15T01:44:52.413Z,5.30
2023-01-15T01:47:25.057Z,5.90
2023-01-15T01:50:02.324Z,5.10
2023-01-15T01:52:40.134Z,4.90
2023-01-15T01:55:09.894Z,6.00
2023-01-15T01:57:39.498Z,5.80
2023-01-15T02:00:11.080Z,5.50
2023-01-15T02:02:40.832Z,6.60
2023-01-15T02:05:12.286Z,6.10
2023-01-15T02:07:40.703Z,5.40
2023-01-15T02:10:17.271Z,5.60
2023-01-15T02:13:14.455Z,7.30
2023-01-15T02:15:50.891Z,6.00
2023-01-15T02:18:35.284Z,6.40
2023-01-15T02:21:29.015Z,5.90
2023-01-15T02:24:08.573Z,5.70
2023-01-15T02:27:15.461Z,7.00
2023-01-15T02:30:12.080Z,6.60
2023-01-15T02:33:18.654Z,6.20
2023-01-15T02:36:01.318Z,6.30
2023-01-15T02:38:35.187Z,6.70
2023-01-15T02:41:07.071Z,6.70
2023-01-15T02:43:38.053Z,6.90
2023-01-15T02:46:07.994Z,7.40
2023-01-15T02:48:39.391Z,6.50
2023-01-15T02:51:15.501Z,6.40
2023-01-15T02:53:48.282Z,6.40
2023-01-15T02:56:20.666Z,6.20
2023-01-15T02:58:52.079Z,6.60
2023-01-15T03:01:26.580Z,6.20
2023-01-15T03:04:07.306Z,6.20
2023-01-15T03:07:05.374Z,7.80
2023-01-15T03:09:35.302Z,5.80
2023-01-15T03:12:17.565Z,6.70
2023-01-15T03:14:54.985Z,6.60
2023-01-15T03:17:33.107Z,4.90
2023-01-15T03:20:20.845Z,4.30
2023-01-15T03:22:57.063Z,4.30
2023-01-15T03:25:29.991Z,4.80
2023-01-15T03:28:02.965Z,4.50
2023-01-15T03:30:31.291Z,4.60
2023-01-15T03:33:00.132Z,5.20
2023-01-15T03:35:47.452Z,4.50
2023-01-15T03:38:25.744Z,5.10
2023-01-15T03:41:03.163Z,4.90
2023-01-15T03:44:02.773Z,5.20
2023-01-15T03:46:43.640Z,5.00
2023-01-15T03:51:52.281Z,4.90
2023-01-15T03:54:27.300Z,5.40
2023-01-15T03:57:04.230Z,4.70
2023-01-15T03:59:40.462Z,5.40
2023-01-15T04:02:12.990Z,4.80
2023-01-15T04:04:44.344Z,4.10
2023-01-15T04:07:13.278Z,4.70
2023-01-15T04:09:42.372Z,4.10
2023-01-15T04:12:11.257Z,3.60
2023-01-15T04:14:39.543Z,3.60
2023-01-15T04:17:08.123Z,4.10
2023-01-15T04:19:36.504Z,4.40
2023-01-15T04:22:05.302Z,3.80
2023-01-15T04:24:34.283Z,4.50
2023-01-15T04:27:02.462Z,4.50
2023-01-15T04:29:30.842Z,3.70
2023-01-15T04:31:59.317Z,3.70
2023-01-15T04:34:28.830Z,3.60
2023-01-15T04:36:58.139Z,3.70
2023-01-15T04:39:26.588Z,3.70
2023-01-15T04:42:13.825Z,4.20
2023-01-15T04:44:42.531Z,4.50
2023-01-15T04:47:10.798Z,3.80
2023-01-15T04:49:39.171Z,3.50
2023-01-15T04:52:07.763Z,3.60
2023-01-15T04:54:35.936Z,3.70
2023-01-15T04:57:04.203Z,3.90
2023-01-15T04:59:33.011Z,3.70
2023-01-15T05:02:06.652Z,3.90
2023-01-15T05:04:35.534Z,4.00
2023-01-15T05:07:05.313Z,4.20
2023-01-15T05:09:34.301Z,4.30
2023-01-15T05:12:02.881Z,3.70
2023-01-15T05:14:31.570Z,3.60
2023-01-15T05:16:59.660Z,3.70
2023-01-15T05:19:27.912Z,3.80
2023-01-15T05:21:56.424Z,4.10
2023-01-15T05:24:24.877Z,3.90
2023-01-15T05:26:54.079Z,3.80
2023-01-15T05:29:22.148Z,4.20
2023-01-15T05:31:50.429Z,3.90
2023-01-15T05:34:19.150Z,4.00
2023-01-15T05:36:47.297Z,4.70
2023-01-15T05:39:15.869Z,4.50
2023-01-15T05:41:50.209Z,4.20
2023-01-15T05:44:21.545Z,4.60
2023-01-15T05:46:51.619Z,4.30
2023-01-15T05:49:22.494Z,4.60
2023-01-15T05:51:51.846Z,4.60
2023-01-15T05:54:22.942Z,4.90
2023-01-15T05:56:52.105Z,4.80
2023-01-15T05:59:22.980Z,5.20
2023-01-15T06:04:21.666Z,4.50
2023-01-15T06:06:53.752Z,5.00
2023-01-15T06:09:23.320Z,4.90
2023-01-15T06:11:53.800Z,4.90
2023-01-15T06:14:22.469Z,4.40
2023-01-15T06:16:51.047Z,4.10
2023-01-15T06:19:19.939Z,4.20
2023-01-15T06:21:49.267Z,4.80
2023-01-15T06:24:18.233Z,4.00
2023-01-15T06:26:46.929Z,5.00
2023-01-15T06:29:19.058Z,4.90
2023-01-15T06:31:49.653Z,5.00
2023-01-15T06:34:17.992Z,6.50
2023-01-15T06:36:46.284Z,7.70
2023-01-15T06:39:14.770Z,6.20
2023-01-15T06:42:01.806Z,5.30
2023-01-15T06:44:49.114Z,5.40
2023-01-15T06:47:24.224Z,4.50
2023-01-15T06:49:58.780Z,5.60
2023-01-15T06:52:28.888Z,4.70
2023-01-15T06:54:57.065Z,5.40
2023-01-15T06:57:25.534Z,4.80
2023-01-15T06:59:53.807Z,5.00
2023-01-15T07:02:22.200Z,5.10
2023-01-15T07:04:52.334Z,4.20
2023-01-15T07:07:21.544Z,5.30
2023-01-15T07:09:50.428Z,4.90
2023-01-15T07:12:19.223Z,4.20
2023-01-15T07:14:47.887Z,4.40
2023-01-15T07:17:16.043Z,4.90
2023-01-15T07:19:45.246Z,4.90
2023-01-15T07:22:13.621Z,5.10
2023-01-15T07:24:41.898Z,4.80
2023-01-15T07:27:10.275Z,4.60
2023-01-15T07:29:38.652Z,5.50
2023-01-15T07:32:07.238Z,4.80
2023-01-15T07:34:35.428Z,4.40
2023-01-15T07:37:03.803Z,4.70
2023-01-15T07:39:32.065Z,4.60
2023-01-15T07:42:19.084Z,4.90
2023-01-15T07:45:06.527Z,4.20
2023-01-15T07:47:53.635Z,4.70
2023-01-15T07:50:24.066Z,4.60
2023-01-15T07:52:53.401Z,4.30
2023-01-15T07:55:23.079Z,4.70
2023-01-15T07:57:51.856Z,4.10
2023-01-15T08:00:22.430Z,4.70
2023-01-15T08:02:51.178Z,4.50
2023-01-15T08:05:20.172Z,4.10
2023-01-15T08:07:49.368Z,4.70
2023-01-15T08:10:17.955Z,4.70
2023-01-15T08:13:05.114Z,5.10
2023-01-15T08:15:38.730Z,4.70
2023-01-15T08:18:07.592Z,4.20
2023-01-15T08:20:39.241Z,5.50
2023-01-15T08:23:07.699Z,4.60
2023-01-15T08:25:35.974Z,4.90
2023-01-15T08:28:04.869Z,5.60
2023-01-15T08:30:32.937Z,5.20
2023-01-15T08:33:03.479Z,5.20
2023-01-15T08:35:32.447Z,5.60
2023-01-15T08:38:06.046Z,5.50
2023-01-15T08:40:36.598Z,6.00
2023-01-15T08:43:04.766Z,5.30
2023-01-15T08:45:33.130Z,4.50
2023-01-15T08:48:01.548Z,5.70
2023-01-15T08:50:29.701Z,5.30
2023-01-15T08:52:57.986Z,4.50
2023-01-15T08:55:26.468Z,6.00
2023-01-15T08:57:54.850Z,4.80
2023-01-15T09:00:24.842Z,5.00
2023-01-15T09:02:53.038Z,4.80
2023-01-15T09:05:21.317Z,5.10
2023-01-15T09:07:49.695Z,4.70
2023-01-15T09:10:19.093Z,5.00
2023-01-15T09:12:47.469Z,4.90
2023-01-15T09:15:16.036Z,5.50
2023-01-15T09:17:44.532Z,5.10
2023-01-15T09:20:14.559Z,4.90
2023-01-15T09:22:43.450Z,5.60
2023-01-15T09:25:11.629Z,5.70
2023-01-15T09:27:39.893Z,6.00
2023-01-15T09:30:10.676Z,5.20
2023-01-15T09:32:38.911Z,5.60
2023-01-15T09:35:08.001Z,5.70
2023-01-15T09:37:36.084Z,5.60
2023-01-15T09:40:07.846Z,5.60
2023-01-15T09:43:05.292Z,6.00
2023-01-15T09:46:02.112Z,5.90
2023-01-15T09:48:36.503Z,5.60
2023-01-15T09:51:27.670Z,6.10
2023-01-15T09:53:58.610Z,6.70
2023-01-15T09:56:29.557Z,5.90
2023-01-15T09:59:01.718Z,6.90
2023-01-15T10:01:32.009Z,5.90
2023-01-15T10:04:11.919Z,6.10
2023-01-15T10:06:52.086Z,6.70
2023-01-15T10:09:31.683Z,7.70
2023-01-15T10:12:35.620Z,7.00
2023-01-15T10:15:16.063Z,6.80
2023-01-15T10:17:53.827Z,7.40
2023-01-15T10:20:40.163Z,7.20
2023-01-15T10:23:08.437Z,6.80
2023-01-15T10:25:49.527Z,7.90
2023-01-15T10:28:51.808Z,7.40
2023-01-15T10:31:24.667Z,6.60
2023-01-15T10:34:25.207Z,7.20
2023-01-15T10:37:11.713Z,6.10
2023-01-15T10:39:53.073Z,7.30
2023-01-15T10:42:30.698Z,7.60
2023-01-15T10:45:10.748Z,6.80
2023-01-15T10:47:41.108Z,6.60
2023-01-15T10:50:27.779Z,7.40
2023-01-15T10:53:14.087Z,8.40
2023-01-15T10:55:47.881Z,7.90
2023-01-15T10:58:34.094Z,8.30
2023-01-15T11:01:13.586Z,7.90
2023-01-15T11:03:44.755Z,7.60
2023-01-15T11:06:19.298Z,7.10
2023-01-15T11:09:11.526Z,7.90
2023-01-15T11:12:06.529Z,7.90
2023-01-15T11:15:03.075Z,7.20
2023-01-15T11:17:58.075Z,7.80
2023-01-15T11:20:34.890Z,7.70
2023-01-15T11:23:12.642Z,7.50
2023-01-15T11:25:53.625Z,7.80
2023-01-15T11:28:40.357Z,7.80
2023-01-15T11:31:10.382Z,7.60
2023-01-15T11:33:39.376Z,7.70
2023-01-15T11:36:21.923Z,7.90
2023-01-15T11:38:51.571Z,7.30
2023-01-15T11:41:51.702Z,6.60
2023-01-15T11:44:41.469Z,6.90
2023-01-15T11:47:33.608Z,6.30
2023-01-15T11:50:21.150Z,6.10
2023-01-15T11:52:53.415Z,7.30
2023-01-15T11:55:24.651Z,7.40
2023-01-15T11:57:54.157Z,6.40
2023-01-15T12:00:29.558Z,6.80
2023-01-15T12:03:15.592Z,6.60
2023-01-15T12:05:54.205Z,5.90
2023-01-15T12:08:48.802Z,5.90
2023-01-15T12:11:29.268Z,6.10
2023-01-15T12:14:16.599Z,5.50
2023-01-15T12:17:07.397Z,5.50
2023-01-15T12:19:57.178Z,5.30
2023-01-15T12:23:07.759Z,5.70
2023-01-15T12:25:58.989Z,5.80
2023-01-15T12:28:38.713Z,5.40
2023-01-15T12:31:11.421Z,4.70
2023-01-15T12:33:48.576Z,4.80
2023-01-15T12:36:23.139Z,4.80
2023-01-15T12:39:04.088Z,5.10
2023-01-15T12:41:56.110Z,4.50
2023-01-15T12:45:06.368Z,5.10
2023-01-15T12:48:02.819Z,5.00
2023-01-15T12:50:45.223Z,4.40
2023-01-15T12:53:25.672Z,4.90
2023-01-15T12:56:16.003Z,4.60
2023-01-15T12:59:05.683Z,4.10
2023-01-15T13:01:55.911Z,4.60
2023-01-15T13:04:39.999Z,4.80
2023-01-15T13:07:34.793Z,4.10
2023-01-15T13:10:19.925Z,4.60
2023-01-15T13:12:48.671Z,4.30
2023-01-15T13:15:19.431Z,4.30
2023-01-15T13:18:09.676Z,4.40
2023-01-15T13:20:46.957Z,4.40
2023-01-15T13:23:21.124Z,4.40
2023-01-15T13:26:07.782Z,4.50
2023-01-15T13:28:52.555Z,4.20
2023-01-15T13:32:00.457Z,4.80
2023-01-15T13:34:31.605Z,5.30
2023-01-15T13:37:07.000Z,4.70
2023-01-15T13:39:40.739Z,5.10
2023-01-15T13:42:32.288Z,5.10
2023-01-15T13:45:26.815Z,4.60
2023-01-15T13:48:02.551Z,4.80
2023-01-15T13:50:41.762Z,4.50
2023-01-15T13:53:37.360Z,4.60
2023-01-15T13:56:12.919Z,4.60
2023-01-15T13:58:56.483Z,4.70
2023-01-15T14:01:30.953Z,4.90
2023-01-15T14:04:04.675Z,4.80
2023-01-15T14:06:59.263Z,5.00
2023-01-15T14:09:30.316Z,5.20
2023-01-15T14:12:08.068Z,5.60
2023-01-15T14:14:55.219Z,4.80
2023-01-15T14:17:32.715Z,5.30
2023-01-15T14:20:34.182Z,4.70
2023-01-15T14:23:30.403Z,5.60
2023-01-15T14:26:05.364Z,5.50
2023-01-15T14:28:55.524Z,5.80
2023-01-15T14:31:23.824Z,6.10
2023-01-15T14:34:15.326Z,6.30
2023-01-15T14:36:56.605Z,6.20
2023-01-15T14:39:45.462Z,6.10
2023-01-15T14:42:41.495Z,6.70
2023-01-15T14:45:12.839Z,6.70
2023-01-15T14:47:48.492Z,6.30
2023-01-15T14:50:34.891Z,6.60
2023-01-15T14:53:13.646Z,6.80
2023-01-15T14:55:56.026Z,7.10
2023-01-15T14:58:48.506Z,7.30
2023-01-15T15:01:34.912Z,6.20
2023-01-15T15:04:12.275Z,6.60
2023-01-15T15:07:17.301Z,7.00
2023-01-15T15:10:00.441Z,7.10
2023-01-15T15:12:41.189Z,5.90
2023-01-15T15:15:27.902Z,7.10
2023-01-15T15:18:06.216Z,8.00
2023-01-15T15:20:47.919Z,7.30
2023-01-15T15:23:28.469Z,8.10
2023-01-15T15:26:05.717Z,8.40
2023-01-15T15:28:33.936Z,8.00
2023-01-15T15:31:02.373Z,8.00
2023-01-15T15:33:40.531Z,7.70
2023-01-15T15:36:09.617Z,8.80
2023-01-15T15:38:41.988Z,8.10
2023-01-15T15:41:12.711Z,8.80
2023-01-15T15:44:15.622Z,9.00
2023-01-15T15:47:09.192Z,9.00
2023-01-15T15:49:41.641Z,9.60
2023-01-15T15:52:28.374Z,9.50
2023-01-15T15:55:19.066Z,10.10
2023-01-15T15:57:51.940Z,10.20
2023-01-15T16:00:29.870Z,10.00
2023-01-15T16:03:04.485Z,10.20
2023-01-15T16:05:32.764Z,8.80
2023-01-15T16:08:19.259Z,9.30
2023-01-15T16:10:53.892Z,9.00
2023-01-15T16:13:35.988Z,9.00
2023-01-15T16:16:08.443Z,9.90
2023-01-15T16:18:45.051Z,10.20
2023-01-15T16:21:24.673Z,9.90
2023-01-15T16:24:03.020Z,9.90
2023-01-15T16:26:44.255Z,10.60
2023-01-15T16:29:22.179Z,10.10
2023-01-15T16:31:51.473Z,10.10
2023-01-15T16:34:24.163Z,9.30
2023-01-15T16:36:53.891Z,8.30
2023-01-15T16:39:44.256Z,8.20
2023-01-15T16:42:40.256Z,9.60
2023-01-15T16:45:25.457Z,9.30
2023-01-15T16:48:02.029Z,9.90
2023-01-15T16:50:32.897Z,10.00
2023-01-15T16:55:34.260Z,8.60
2023-01-15T16:58:14.903Z,8.40
2023-01-15T17:00:55.885Z,8.40
2023-01-15T17:05:57.187Z,7.90
2023-01-15T17:08:39.866Z,9.50
2023-01-15T17:11:22.497Z,9.90
2023-01-15T17:13:51.258Z,10.50
2023-01-15T17:16:23.424Z,9.90
2023-01-15T17:18:52.214Z,10.20
2023-01-15T17:21:27.728Z,10.80
2023-01-15T17:23:57.692Z,10.60
2023-01-15T17:26:30.171Z,10.40
2023-01-15T17:29:00.476Z,10.30
2023-01-15T17:31:31.969Z,9.40
2023-01-15T17:34:03.059Z,10.10
2023-01-15T17:36:33.087Z,9.70
2023-01-15T17:39:01.892Z,8.00
2023-01-15T17:41:31.186Z,10.50
2023-01-15T17:44:00.376Z,10.50
2023-01-15T17:46:34.066Z,10.90
2023-01-15T17:49:05.841Z,10.60
2023-01-15T17:51:35.039Z,11.10
2023-01-15T17:54:04.647Z,11.40
2023-01-15T17:56:52.308Z,10.90
2023-01-15T17:59:47.686Z,10.30
2023-01-15T18:02:47.363Z,11.10
2023-01-15T18:05:32.983Z,10.10
2023-01-15T18:08:06.279Z,11.40
2023-01-15T18:10:35.374Z,11.90
2023-01-15T18:13:07.749Z,10.30
2023-01-15T18:15:36.126Z,10.50
2023-01-15T18:18:04.921Z,11.50
2023-01-15T18:20:34.120Z,9.60
2023-01-15T18:23:02.396Z,10.70
2023-01-15T18:25:31.904Z,11.20
2023-01-15T18:28:00.274Z,10.30
2023-01-15T18:30:29.274Z,11.30
2023-01-15T18:32:57.443Z,11.00
2023-01-15T18:35:25.726Z,11.30
2023-01-15T18:37:54.109Z,10.30
2023-01-15T18:40:27.500Z,10.30
2023-01-15T18:43:14.317Z,10.10
2023-01-15T18:46:05.427Z,10.00
2023-01-15T18:51:11.495Z,8.80
2023-01-15T18:53:39.675Z,8.60
2023-01-15T18:56:08.453Z,9.30
2023-01-15T18:58:36.741Z,8.40
2023-01-15T19:01:09.213Z,9.60
2023-01-15T19:03:37.690Z,9.30
2023-01-15T19:06:13.144Z,9.30
2023-01-15T19:08:41.333Z,10.00
2023-01-15T19:11:13.792Z,8.60
2023-01-15T19:13:42.068Z,10.70
2023-01-15T19:16:29.644Z,11.10
2023-01-15T19:18:58.075Z,10.80
2023-01-15T19:21:26.252Z,10.00
2023-01-15T19:23:54.423Z,10.40
2023-01-15T19:26:22.621Z,10.20
2023-01-15T19:28:50.903Z,10.50
2023-01-15T19:31:39.450Z,11.10
2023-01-15T19:34:32.584Z,9.50
2023-01-15T19:36:59.750Z,10.50
2023-01-15T19:39:29.295Z,10.50
2023-01-15T19:42:17.795Z,10.50
2023-01-15T19:45:04.709Z,10.20
2023-01-15T19:47:57.577Z,9.80
2023-01-15T19:50:46.698Z,9.70
2023-01-15T19:53:15.222Z,9.00
2023-01-15T19:55:45.969Z,9.60
2023-01-15T19:58:15.243Z,10.10
2023-01-15T20:00:48.595Z,10.30
2023-01-15T20:03:17.836Z,11.90
2023-01-15T20:05:47.404Z,10.90
2023-01-15T20:08:18.914Z,12.90
2023-01-15T20:10:50.045Z,12.00
2023-01-15T20:13:42.603Z,13.10
2023-01-15T20:16:18.614Z,13.40
2023-01-15T20:18:50.838Z,13.30
2023-01-15T20:21:19.714Z,15.00
2023-01-15T20:23:47.992Z,12.00
2023-01-15T20:26:17.489Z,14.80
2023-01-15T20:28:47.916Z,13.50
2023-01-15T20:31:18.724Z,12.90
2023-01-15T20:33:47.440Z,13.40
2023-01-15T20:36:16.130Z,13.30
2023-01-15T20:38:44.415Z,14.40
2023-01-15T20:41:31.318Z,11.20
2023-01-15T20:44:18.434Z,13.30
2023-01-15T20:46:46.708Z,13.20
2023-01-15T20:49:32.645Z,13.50
2023-01-15T20:52:01.596Z,12.60
2023-01-15T20:54:30.077Z,11.60
2023-01-15T20:56:58.458Z,12.10
2023-01-15T20:59:27.349Z,12.70
2023-01-15T21:01:55.574Z,11.50
2023-01-15T21:04:24.118Z,11.30
2023-01-15T21:06:52.488Z,12.10
2023-01-15T21:09:20.718Z,12.40
2023-01-15T21:11:49.151Z,11.00
2023-01-15T21:14:17.316Z,10.10
2023-01-15T21:16:45.637Z,11.50
2023-01-15T21:19:13.972Z,11.20
2023-01-15T21:21:42.249Z,11.00
2023-01-15T21:24:10.531Z,10.20
2023-01-15T21:26:38.911Z,11.00
2023-01-15T21:29:07.181Z,11.30
2023-01-15T21:31:35.493Z,10.50
2023-01-15T21:34:04.771Z,10.20
2023-01-15T21:36:33.240Z,10.30
2023-01-15T21:39:01.823Z,9.10
2023-01-15T21:41:49.554Z,10.20
2023-01-15T21:44:32.070Z,10.30
2023-01-15T21:47:01.685Z,10.20
2023-01-15T21:49:33.345Z,8.80
2023-01-15T21:52:03.780Z,10.70
2023-01-15T21:54:32.563Z,10.00
2023-01-15T21:57:01.343Z,10.90
2023-01-15T21:59:29.611Z,11.00
2023-01-15T22:01:59.643Z,10.80
2023-01-15T22:04:30.257Z,9.30
2023-01-15T22:06:58.447Z,10.50
2023-01-15T22:09:26.920Z,9.90
2023-01-15T22:11:55.197Z,11.40
2023-01-15T22:14:28.080Z,11.50
2023-01-15T22:16:59.080Z,11.80
2023-01-15T22:19:29.224Z,11.10
2023-01-15T22:22:09.302Z,10.90
2023-01-15T22:24:40.158Z,10.70
2023-01-15T22:27:12.398Z,13.70
2023-01-15T22:29:42.336Z,14.80
2023-01-15T22:32:13.384Z,11.50
2023-01-15T22:34:41.958Z,11.10
2023-01-15T22:37:13.191Z,10.90
2023-01-15T22:39:41.467Z,9.50
2023-01-15T22:42:24.693Z,11.80
2023-01-15T22:44:53.789Z,12.70
2023-01-15T22:47:22.168Z,9.40
2023-01-15T22:49:50.359Z,10.00
2023-01-15T22:52:19.337Z,10.60
2023-01-15T22:54:47.930Z,10.70
2023-01-15T22:57:17.422Z,11.90
2023-01-15T22:59:45.712Z,14.30
2023-01-15T23:02:14.378Z,14.40
2023-01-15T23:04:43.104Z,14.40
2023-01-15T23:07:11.465Z,15.90
2023-01-15T23:09:39.847Z,13.40
2023-01-15T23:12:08.415Z,15.40
2023-01-15T23:14:36.600Z,14.20
2023-01-15T23:17:05.081Z,12.30
2023-01-15T23:19:34.278Z,11.70
2023-01-15T23:22:02.446Z,12.70
2023-01-15T23:24:30.744Z,12.00
2023-01-15T23:26:58.999Z,12.30
2023-01-15T23:29:27.285Z,12.90
2023-01-15T23:31:55.569Z,12.90
2023-01-15T23:34:24.245Z,11.80
2023-01-15T23:36:52.620Z,10.90
2023-01-15T23:39:20.799Z,10.50
2023-01-15T23:42:07.707Z,11.00
2023-01-15T23:44:54.857Z,10.70
2023-01-15T23:47:23.102Z,10.70
2023-01-15T23:49:51.488Z,11.30
2023-01-15T23:52:20.476Z,10.70
2023-01-15T23:54:48.865Z,9.80
2023-01-15T23:57:17.343Z,12.30
2023-01-15T23:59:45.627Z,11.80
